Washington, DC (20044)

4:55 PM EDT on June 30, 2015 (GMT -0400)
Logan Circle | | Change Station
CLOSE
Current Station
Personal Weather Station
Location: Washington, DC
Elevation: 108 ft
Nearby Weather Stations

Elev 108 ft 38.91 °N, 77.03 °W | Updated 13 seconds ago

Mostly Cloudy
Mostly Cloudy
94.0 °F
Feels Like 99 °F
N
0.0
Wind Variable Wind from North
Gusts 0.0 mph

Today
High -- | Low -- °F
--% Chance of Precip.
Yesterday
High -- | Low -- °F
Precip. -- in
5:45 AM 8:37 PM
Waxing Gibbous, 98% visible
Pressure 29.79 in
Visibility 10.0 miles
Clouds Scattered Clouds 4800 ft
Mostly Cloudy 25000 ft
Heat Index 99 °F
Dew Point 69 °F
Humidity 44%
Rainfall in
Snow Depth Not available.
UV 3 out of 12
Pollen 4.20 out of 12
Air Quality Not available.
Flu Activity Sporadic
METAR KDCA 302052Z 20013G20KT 10SM SCT048CB BKN250 31/19 A2978 RMK AO2 SLP086 CB VC E-SE MOV NE T03110194 58028

More Conditions Fewer Conditions

Pressure 29.79 in
Visibility 10.0 miles
Clouds Scattered Clouds 4800 ft
Mostly Cloudy 25000 ft
Heat Index 99 °F
Dew Point 69 °F
Humidity 44%
Rainfall in
Snow Depth Not available.
UV 3 out of 12
Pollen 4.20 out of 12
Air Quality Not available.
Flu Activity Sporadic
METAR KDCA 302052Z 20013G20KT 10SM SCT048CB BKN250 31/19 A2978 RMK AO2 SLP086 CB VC E-SE MOV NE T03110194 58028

More Conditions Fewer Conditions

10-Day Weather Forecast

×

Almanac

Astronomy

Jun. 30, 2015 Rise Set
Actual Time
Civil Twilight
Nautical Twilight
Astronomical Twilight
Moon
Length of Visible Light
Length of Day
Tomorrow will be .
, % of the Moon is Illuminated

Today's Extremes

State Highs State Lows

Community

WunderPhotos

Upload Photos

1,834,069 photos uploaded!

WunderBlogs® & News

Nearby

Air Quality

  Air Quality AQ Index Pollutant
Not available.

Snow Depth

Station Depth Elevation

Earthquake Activity

City Distance Mag. Time & Date
Minimum magnitude displayed is 2.5.

Coastal Water Temperatures

Place Temperature

Stations

Nearby Weather Stations

Station Location Temp. Windchill Dew Point Humidity Wind Precip. Elev Updated Type
                   
Severe Thunderstorm Watch
Statement as of 4:43 PM EDT on June 30, 2015

Severe Thunderstorm Watch 377 remains in effect until 900 PM EDT
for the following locations


DC
. District of Columbia counties included are

District of Columbia